Time;durP1;ratioP1;P1;durP2;ratioP2;P2;SDS_P1;SDS_P2;PMS_P1;PMS_P2;Temp;Humidity;BMP_temperature;BMP_pressure;BME280_temperature;BME280_humidity;BME280_pressure;Samples;Min_cycle;Max_cycle;Signal;HPM_P1;HPM_P2
2020/12/22 00:01:03;;;;;;;112.28;54.40;;;;;;;0.96;85.01;99597.86;2118576;84;21245;-68
2020/12/22 00:04:04;;;;;;;108.72;52.40;;;;;;;0.94;85.11;99591.86;2200268;81;21143;-65
2020/12/22 00:07:05;;;;;;;112.72;52.85;;;;;;;0.90;85.17;99581.13;2200304;81;21128;-67
2020/12/22 00:10:06;;;;;;;114.77;54.00;;;;;;;0.83;85.21;99574.74;2200085;81;21254;-67
2020/12/22 00:13:07;;;;;;;116.03;54.60;;;;;;;0.76;85.21;99563.17;2199757;81;21175;-66
2020/12/22 00:16:08;;;;;;;112.10;52.27;;;;;;;0.68;85.14;99565.39;2199769;81;21274;-65
2020/12/22 00:19:09;;;;;;;110.65;52.45;;;;;;;0.66;85.28;99564.97;2199873;81;21120;-66
2020/12/22 00:22:10;;;;;;;116.53;55.52;;;;;;;0.66;85.26;99565.84;2199891;81;21753;-65
2020/12/22 00:25:12;;;;;;;124.80;59.48;;;;;;;0.69;85.34;99559.81;2200274;81;21151;-65
2020/12/22 00:28:13;;;;;;;122.70;59.70;;;;;;;0.68;85.36;99559.37;2199798;81;21274;-66
2020/12/22 00:31:14;;;;;;;118.28;57.55;;;;;;;0.72;85.46;99564.94;2200012;81;21724;-66
2020/12/22 00:34:15;;;;;;;121.40;56.80;;;;;;;0.74;85.37;99564.48;2200232;81;21199;-70
2020/12/22 00:37:16;;;;;;;114.05;53.80;;;;;;;0.76;85.31;99561.88;2199808;81;21249;-65
2020/12/22 00:40:17;;;;;;;118.42;55.08;;;;;;;0.78;85.34;99562.73;2200042;81;21266;-65
2020/12/22 00:43:18;;;;;;;123.92;59.58;;;;;;;0.77;85.38;99564.45;2200072;81;21286;-74
2020/12/22 00:46:19;;;;;;;120.60;58.23;;;;;;;0.75;85.33;99563.62;2199777;81;21284;-70
2020/12/22 00:49:21;;;;;;;129.50;59.77;;;;;;;0.76;85.44;99561.47;2118658;84;21597;-72
2020/12/22 00:52:22;;;;;;;120.85;57.33;;;;;;;0.76;85.51;99561.88;2199759;81;23213;-69
2020/12/22 00:55:23;;;;;;;119.65;58.00;;;;;;;0.75;85.45;99562.73;2118665;84;21178;-70
2020/12/22 00:58:24;;;;;;;120.45;57.30;;;;;;;0.68;85.54;99558.09;2200020;81;21793;-65
2020/12/22 01:01:30;;;;;;;116.60;54.55;;;;;;;0.64;85.69;99555.95;2199978;81;21301;-68
2020/12/22 01:04:29;;;;;;;121.80;58.10;;;;;;;0.62;85.76;99551.70;2199653;81;21706;-70
2020/12/22 01:07:30;;;;;;;126.92;62.70;;;;;;;0.59;85.74;99549.11;2173706;81;21333;-69
2020/12/22 01:10:31;;;;;;;131.43;63.25;;;;;;;0.60;85.88;99546.52;2199743;81;21281;-71
2020/12/22 01:13:32;;;;;;;120.75;59.13;;;;;;;0.62;85.89;99540.92;2200002;81;21187;-71
2020/12/22 01:16:34;;;;;;;125.50;58.92;;;;;;;0.61;85.79;99534.03;2199909;81;21702;-73
2020/12/22 01:19:35;;;;;;;119.42;57.70;;;;;;;0.64;85.84;99524.12;2198401;81;21313;-69
2020/12/22 01:22:36;;;;;;;117.67;56.15;;;;;;;0.62;85.70;99521.56;2112034;84;21289;-73
2020/12/22 01:25:37;;;;;;;116.70;57.00;;;;;;;0.58;85.60;99513.41;2206322;80;21274;-65
2020/12/22 01:28:38;;;;;;;133.20;63.38;;;;;;;0.57;85.58;99512.14;2111682;84;21594;-73
2020/12/22 01:31:40;;;;;;;144.45;68.02;;;;;;;0.55;85.58;99504.83;2175434;81;21599;-65
2020/12/22 01:34:41;;;;;;;130.00;60.85;;;;;;;0.56;85.45;99502.67;2111584;84;21590;-65
2020/12/22 01:37:42;;;;;;;123.00;58.75;;;;;;;0.51;85.59;99494.98;2205899;81;21592;-65
2020/12/22 01:40:43;;;;;;;122.37;57.93;;;;;;;0.49;85.56;99493.70;2112021;84;21284;-76
2020/12/22 01:43:44;;;;;;;124.60;60.55;;;;;;;0.47;85.54;99490.27;2205958;81;21473;-65
2020/12/22 01:46:45;;;;;;;120.67;59.03;;;;;;;0.48;85.57;99493.72;2111593;84;21170;-77
2020/12/22 01:49:47;;;;;;;130.90;60.83;;;;;;;0.48;85.60;99491.14;2206032;80;21135;-77
2020/12/22 01:52:48;;;;;;;130.03;60.17;;;;;;;0.46;85.54;99492.86;2091967;84;21340;-78
2020/12/22 01:55:49;;;;;;;129.47;57.27;;;;;;;0.43;85.49;99498.94;2206311;80;21281;-76
2020/12/22 01:58:50;;;;;;;120.57;56.63;;;;;;;0.42;85.51;99498.95;2091849;84;21289;-77
2020/12/22 02:01:52;;;;;;;123.28;60.17;;;;;;;0.40;85.42;99495.06;2205892;80;21101;-78
2020/12/22 02:04:53;;;;;;;132.07;67.05;;;;;;;0.41;85.48;99490.78;2111558;84;21614;-66
2020/12/22 02:07:54;;;;;;;129.27;64.07;;;;;;;0.41;85.53;99477.88;2205859;80;21163;-66
2020/12/22 02:10:55;;;;;;;129.72;61.35;;;;;;;0.40;85.61;99471.84;2111556;84;21139;-66
2020/12/22 02:13:57;;;;;;;130.07;57.75;;;;;;;0.45;85.59;99470.53;2205799;80;21159;-65
2020/12/22 02:16:58;;;;;;;119.93;58.35;;;;;;;0.41;85.50;99464.97;2112156;84;21159;-65
2020/12/22 02:20:00;;;;;;;125.55;58.48;;;;;;;0.41;85.50;99462.39;2209656;80;21162;-65
2020/12/22 02:23:01;;;;;;;123.18;58.87;;;;;;;0.42;85.50;99465.40;2213017;80;21285;-65
2020/12/22 02:26:02;;;;;;;130.63;58.63;;;;;;;0.41;85.51;99456.78;2213119;80;21587;-67
2020/12/22 02:29:05;;;;;;;121.42;56.88;;;;;;;0.38;85.50;99466.30;2213389;80;21174;-65
2020/12/22 02:32:06;;;;;;;120.95;56.77;;;;;;;0.37;85.55;99473.16;2213056;80;21171;-65
2020/12/22 02:35:07;;;;;;;117.20;57.53;;;;;;;0.35;85.51;99482.66;2184421;80;21756;-65
2020/12/22 02:38:08;;;;;;;124.33;58.42;;;;;;;0.32;85.44;99474.95;2213151;80;21135;-65
2020/12/22 02:41:09;;;;;;;132.40;60.15;;;;;;;0.29;85.51;99464.66;2213305;80;21705;-65
2020/12/22 02:44:10;;;;;;;126.72;58.00;;;;;;;0.26;85.77;99460.78;2213628;80;21278;-67
2020/12/22 02:47:12;;;;;;;119.75;54.73;;;;;;;0.22;85.66;99454.81;2118795;84;21613;-68
2020/12/22 02:50:13;;;;;;;115.28;55.48;;;;;;;0.15;85.70;99447.99;2199911;81;21297;-65
2020/12/22 02:53:15;;;;;;;111.80;53.08;;;;;;;0.12;85.76;99437.70;2200050;81;21739;-65
2020/12/22 02:56:16;;;;;;;111.42;53.17;;;;;;;0.08;86.02;99429.13;2200346;81;21108;-65
2020/12/22 02:59:17;;;;;;;110.83;52.10;;;;;;;0.06;86.26;99424.42;2200056;81;21167;-65
2020/12/22 03:02:18;;;;;;;118.55;53.23;;;;;;;-0.01;85.93;99426.63;2199872;81;21298;-65
2020/12/22 03:05:19;;;;;;;117.25;54.18;;;;;;;-0.01;86.07;99417.61;2118876;84;21284;-65
2020/12/22 03:08:20;;;;;;;111.75;52.10;;;;;;;0.01;86.03;99412.43;2199896;81;21274;-65
2020/12/22 03:11:22;;;;;;;114.30;50.35;;;;;;;0.03;86.07;99396.08;2199999;81;21273;-65
2020/12/22 03:14:23;;;;;;;110.55;51.53;;;;;;;0.03;86.00;99399.08;2200051;81;21746;-65
2020/12/22 03:17:24;;;;;;;121.15;56.18;;;;;;;0.05;86.04;99394.33;2174307;81;21282;-65
2020/12/22 03:20:25;;;;;;;109.20;50.85;;;;;;;0.02;86.01;99387.91;2197734;81;21325;-66
2020/12/22 03:23:26;;;;;;;108.65;52.05;;;;;;;0.02;85.96;99381.91;2111836;84;21296;-67
2020/12/22 03:26:27;;;;;;;105.90;50.38;;;;;;;0.02;85.87;99373.72;2205939;80;21152;-68
2020/12/22 03:29:29;;;;;;;102.05;48.17;;;;;;;-0.02;85.95;99366.44;2111900;84;21264;-69
2020/12/22 03:32:30;;;;;;;106.20;49.73;;;;;;;-0.02;85.92;99363.86;2206441;81;21321;-72
2020/12/22 03:35:31;;;;;;;111.85;51.15;;;;;;;0.03;86.03;99369.00;2111902;84;21280;-68
2020/12/22 03:38:32;;;;;;;123.02;58.02;;;;;;;-0.01;85.71;99359.58;2205982;80;21145;-66
2020/12/22 03:41:33;;;;;;;114.08;53.65;;;;;;;-0.05;85.88;99370.34;2111657;84;21111;-69
2020/12/22 03:44:35;;;;;;;128.95;68.12;;;;;;;-0.03;85.94;99368.62;2205911;80;21143;-67
2020/12/22 03:47:36;;;;;;;107.95;51.08;;;;;;;0.01;85.78;99364.27;2111653;84;21153;-66
2020/12/22 03:50:37;;;;;;;102.87;49.48;;;;;;;0.02;85.85;99357.41;2206126;80;21681;-70
2020/12/22 03:53:38;;;;;;;111.28;51.80;;;;;;;0.06;85.68;99363.80;2091740;84;21324;-65
2020/12/22 03:56:39;;;;;;;107.63;50.70;;;;;;;0.04;85.48;99360.36;2175495;81;21283;-67
2020/12/22 03:59:40;;;;;;;100.20;48.15;;;;;;;0.00;85.50;99357.42;2111751;84;21725;-65
2020/12/22 04:02:41;;;;;;;100.05;48.45;;;;;;;-0.05;85.31;99359.18;2206430;80;21278;-66
2020/12/22 04:05:43;;;;;;;107.10;48.10;;;;;;;-0.12;85.39;99357.08;2205928;81;21148;-66
2020/12/22 04:08:44;;;;;;;100.62;48.00;;;;;;;-0.14;85.50;99346.35;2111869;84;21300;-65
2020/12/22 04:11:45;;;;;;;102.20;46.98;;;;;;;-0.15;85.62;99346.80;2206149;80;21748;-65
2020/12/22 04:14:47;;;;;;;105.15;47.75;;;;;;;-0.15;85.53;99339.06;2111784;84;21320;-65
2020/12/22 04:17:48;;;;;;;91.20;42.62;;;;;;;-0.21;85.52;99327.52;2206427;81;21277;-65
2020/12/22 04:20:49;;;;;;;94.42;45.65;;;;;;;-0.21;85.72;99322.37;2130708;83;21170;-67
2020/12/22 04:23:51;;;;;;;104.20;48.60;;;;;;;-0.24;85.65;99319.82;2200671;81;22268;-64
2020/12/22 04:26:52;;;;;;;101.75;46.00;;;;;;;-0.26;85.86;99328.86;2143855;83;21142;-65
2020/12/22 04:29:53;;;;;;;107.05;47.98;;;;;;;-0.21;85.76;99332.68;2200490;81;21135;-66
2020/12/22 04:32:54;;;;;;;94.05;43.65;;;;;;;-0.26;85.56;99324.12;2144235;83;21316;-66
2020/12/22 04:35:55;;;;;;;94.22;44.83;;;;;;;-0.29;85.64;99315.97;2200505;81;21151;-66
2020/12/22 04:38:56;;;;;;;101.40;47.75;;;;;;;-0.32;85.97;99304.41;2143792;83;21122;-65
2020/12/22 04:41:57;;;;;;;98.05;46.28;;;;;;;-0.37;85.91;99299.74;2200464;81;21147;-65
2020/12/22 04:44:58;;;;;;;97.82;47.53;;;;;;;-0.42;85.99;99298.91;2143738;83;21153;-65
2020/12/22 04:48:00;;;;;;;98.60;46.90;;;;;;;-0.40;86.03;99307.06;2200954;81;21297;-65
2020/12/22 04:51:01;;;;;;;99.40;45.52;;;;;;;-0.35;86.05;99298.83;2144050;83;21311;-65
2020/12/22 04:54:02;;;;;;;97.35;45.38;;;;;;;-0.31;85.94;99286.78;2200753;81;21285;-70
2020/12/22 04:57:03;;;;;;;96.35;44.05;;;;;;;-0.32;85.93;99287.64;2144618;83;21158;-66
2020/12/22 05:00:04;;;;;;;103.05;47.93;;;;;;;-0.35;85.93;99276.92;2176401;81;21297;-68
2020/12/22 05:03:06;;;;;;;100.38;46.18;;;;;;;-0.35;86.00;99282.52;2144025;83;21288;-67
2020/12/22 05:06:07;;;;;;;100.92;48.17;;;;;;;-0.35;85.92;99284.66;2200595;81;21535;-65
2020/12/22 05:09:08;;;;;;;108.52;48.87;;;;;;;-0.30;85.88;99281.19;2143766;83;21157;-67
2020/12/22 05:12:09;;;;;;;102.80;47.45;;;;;;;-0.28;85.92;99274.30;2200935;81;21274;-70
2020/12/22 05:15:10;;;;;;;99.95;44.58;;;;;;;-0.28;85.78;99277.73;2143801;83;21177;-71
2020/12/22 05:18:11;;;;;;;90.90;41.75;;;;;;;-0.31;85.76;99273.89;2200626;81;21309;-72
2020/12/22 05:21:13;;;;;;;93.47;45.03;;;;;;;-0.31;85.79;99262.73;2143674;83;21126;-67
2020/12/22 05:24:14;;;;;;;102.80;45.92;;;;;;;-0.35;85.81;99256.74;2200395;81;21135;-67
2020/12/22 05:27:15;;;;;;;105.83;46.90;;;;;;;-0.37;85.90;99263.20;2144011;83;21177;-65
2020/12/22 05:30:16;;;;;;;102.45;44.88;;;;;;;-0.39;86.00;99270.53;2200643;81;21709;-65
2020/12/22 05:33:18;;;;;;;98.78;43.35;;;;;;;-0.38;86.06;99267.93;2143852;83;21210;-65
2020/12/22 05:36:19;;;;;;;104.43;46.73;;;;;;;-0.32;86.04;99272.17;2200576;81;21540;-67
2020/12/22 05:39:20;;;;;;;99.60;44.60;;;;;;;-0.27;85.94;99263.13;2144012;83;21158;-69
2020/12/22 05:42:22;;;;;;;103.92;45.65;;;;;;;-0.22;85.92;99262.63;2200579;81;21139;-66
2020/12/22 05:45:23;;;;;;;98.85;44.10;;;;;;;-0.27;85.87;99253.66;2143795;83;21315;-65
2020/12/22 05:48:24;;;;;;;97.70;43.68;;;;;;;-0.27;85.85;99249.80;2200431;81;21168;-64
2020/12/22 05:51:25;;;;;;;94.85;44.13;;;;;;;-0.28;85.94;99245.50;2143887;83;21142;-65
2020/12/22 05:54:26;;;;;;;102.67;45.70;;;;;;;-0.26;85.99;99242.49;2200601;81;21749;-64
2020/12/22 05:57:27;;;;;;;111.03;49.08;;;;;;;-0.27;85.93;99234.33;2143902;83;21165;-66
2020/12/22 06:00:28;;;;;;;96.75;43.83;;;;;;;-0.31;85.85;99224.91;2200901;81;21278;-71
2020/12/22 06:03:30;;;;;;;99.52;49.23;;;;;;;-0.28;85.89;99229.19;2144005;83;21287;-68
2020/12/22 06:06:31;;;;;;;104.63;47.17;;;;;;;-0.30;85.77;99222.77;2200474;81;21103;-66
2020/12/22 06:09:33;;;;;;;101.57;45.17;;;;;;;-0.29;85.74;99218.00;2144129;83;21604;-67
2020/12/22 06:12:34;;;;;;;102.32;44.75;;;;;;;-0.25;85.74;99211.95;2200744;81;22052;-68
2020/12/22 06:15:35;;;;;;;95.72;43.50;;;;;;;-0.27;85.62;99211.13;2143908;83;21146;-68
2020/12/22 06:18:36;;;;;;;96.53;42.58;;;;;;;-0.30;85.63;99203.43;2200991;81;21721;-68
2020/12/22 06:21:37;;;;;;;97.12;44.23;;;;;;;-0.28;85.71;99194.39;2143877;83;21157;-65
2020/12/22 06:24:38;;;;;;;93.58;42.53;;;;;;;-0.28;85.77;99187.94;2200786;81;21702;-66
2020/12/22 06:27:41;;;;;;;90.87;42.05;;;;;;;-0.33;85.80;99182.84;2144073;83;21150;-65
2020/12/22 06:30:42;;;;;;;96.63;44.25;;;;;;;-0.37;85.92;99180.72;2200708;81;21706;-65
2020/12/22 06:33:43;;;;;;;94.65;42.45;;;;;;;-0.36;86.04;99172.13;2144180;83;21329;-69
2020/12/22 06:36:44;;;;;;;93.03;41.00;;;;;;;-0.32;86.10;99170.35;2200953;81;21293;-65
2020/12/22 06:39:46;;;;;;;94.62;42.10;;;;;;;-0.30;86.30;99170.33;2144228;83;21340;-70
2020/12/22 06:42:47;;;;;;;92.17;41.60;;;;;;;-0.32;86.18;99159.20;2200568;81;21158;-65
2020/12/22 06:45:48;;;;;;;96.45;42.70;;;;;;;-0.30;86.31;99160.89;2143904;83;21114;-68
2020/12/22 06:48:49;;;;;;;93.07;41.50;;;;;;;-0.26;86.26;99148.80;2201060;81;21694;-65
2020/12/22 06:51:51;;;;;;;96.03;43.23;;;;;;;-0.23;86.30;99142.31;2144645;83;21313;-70
2020/12/22 06:54:52;;;;;;;104.27;46.53;;;;;;;-0.19;86.24;99147.86;2200791;81;21310;-69
2020/12/22 06:57:53;;;;;;;104.38;46.20;;;;;;;-0.14;86.33;99146.09;2144011;83;21695;-67
2020/12/22 07:00:54;;;;;;;101.53;44.00;;;;;;;-0.14;86.08;99142.22;2201030;81;21290;-66
2020/12/22 07:03:55;;;;;;;97.27;44.15;;;;;;;-0.09;86.11;99140.87;2144330;83;21339;-71
2020/12/22 07:06:59;;;;;;;101.07;47.05;;;;;;;-0.07;86.14;99147.72;2200667;81;21163;-66
2020/12/22 07:10:00;;;;;;;101.38;48.48;;;;;;;0.02;86.16;99143.33;2143890;83;21138;-65
2020/12/22 07:13:01;;;;;;;89.50;43.33;;;;;;;0.05;86.00;99139.41;2200529;81;21159;-64
2020/12/22 07:16:03;;;;;;;90.57;41.85;;;;;;;0.06;85.99;99133.36;2144095;83;21574;-63
2020/12/22 07:19:04;;;;;;;80.97;39.60;;;;;;;0.11;85.92;99132.87;2200788;81;21293;-64
2020/12/22 07:22:05;;;;;;;85.72;38.92;;;;;;;0.13;85.87;99128.53;2119552;83;21816;-66
2020/12/22 07:25:06;;;;;;;89.97;40.95;;;;;;;0.19;85.73;99128.88;2205926;80;21147;-64
2020/12/22 07:28:07;;;;;;;85.85;41.33;;;;;;;0.19;85.72;99122.44;2111594;84;21621;-67
2020/12/22 07:31:09;;;;;;;85.85;41.83;;;;;;;0.21;85.68;99127.99;2205909;81;21151;-69
2020/12/22 07:34:10;;;;;;;85.15;39.42;;;;;;;0.20;85.70;99127.56;2111781;84;21716;-67
2020/12/22 07:37:11;;;;;;;85.67;38.80;;;;;;;0.26;85.80;99119.77;2206647;81;21281;-67
2020/12/22 07:40:13;;;;;;;86.12;39.98;;;;;;;0.34;85.67;99120.93;2111892;84;21280;-64
2020/12/22 07:43:14;;;;;;;81.53;39.20;;;;;;;0.43;85.62;99119.94;2206161;80;21313;-66
2020/12/22 07:46:18;;;;;;;88.85;40.25;;;;;;;0.50;85.52;99104.36;2112074;84;21297;-67
2020/12/22 07:49:19;;;;;;;88.82;42.78;;;;;;;0.58;85.42;99100.34;2175605;81;21277;-67
2020/12/22 07:52:21;;;;;;;82.33;38.33;;;;;;;0.66;85.41;99102.37;2111758;84;21743;-68
2020/12/22 07:55:22;;;;;;;83.92;37.75;;;;;;;0.74;85.26;99098.81;2206062;80;21151;-67
2020/12/22 07:58:23;;;;;;;78.00;36.13;;;;;;;0.80;85.12;99093.09;2111639;84;21150;-68
2020/12/22 08:01:25;;;;;;;83.35;37.23;;;;;;;0.86;85.03;99090.42;2206000;80;21748;-65
2020/12/22 08:04:26;;;;;;;78.80;37.55;;;;;;;0.88;84.92;99089.10;2091691;84;21286;-68
2020/12/22 08:07:27;;;;;;;73.40;33.78;;;;;;;0.90;84.98;99083.45;2206172;80;21733;-66
2020/12/22 08:10:29;;;;;;;95.30;41.35;;;;;;;0.91;84.83;99080.00;2112087;84;21272;-67
2020/12/22 08:13:30;;;;;;;72.53;35.50;;;;;;;0.87;84.82;99077.06;2206345;80;21353;-66
2020/12/22 08:16:31;;;;;;;75.42;37.83;;;;;;;0.87;84.93;99080.93;2111961;84;21280;-66
2020/12/22 08:19:32;;;;;;;79.53;36.58;;;;;;;0.87;84.98;99069.31;2205933;81;21316;-76
2020/12/22 08:22:33;;;;;;;83.03;38.25;;;;;;;0.92;85.04;99062.77;2138357;83;21743;-73
2020/12/22 08:25:35;;;;;;;80.45;37.65;;;;;;;0.94;85.09;99064.45;2200881;81;21614;-71
2020/12/22 08:28:36;;;;;;;73.80;34.75;;;;;;;0.98;85.06;99063.97;2144171;83;21303;-73
2020/12/22 08:31:37;;;;;;;69.50;32.80;;;;;;;1.02;85.01;99067.75;2200628;81;21298;-68
2020/12/22 08:34:38;;;;;;;67.32;31.73;;;;;;;1.07;85.03;99051.32;2144220;83;21337;-73
2020/12/22 08:37:39;;;;;;;82.35;37.58;;;;;;;1.10;84.88;99049.52;2200711;81;21309;-67
2020/12/22 08:40:40;;;;;;;75.25;35.25;;;;;;;1.16;84.92;99040.80;2143836;83;21114;-70
2020/12/22 08:43:41;;;;;;;74.10;33.95;;;;;;;1.18;84.87;99040.34;2200675;81;21297;-69
2020/12/22 08:46:42;;;;;;;69.95;32.10;;;;;;;1.23;84.82;99037.20;2144262;83;21284;-67
2020/12/22 08:49:44;;;;;;;73.22;33.63;;;;;;;1.25;84.78;99033.30;2200923;81;21103;-68
2020/12/22 08:52:45;;;;;;;68.00;32.33;;;;;;;1.26;84.78;99033.27;2144211;83;21158;-68
2020/12/22 08:55:46;;;;;;;71.95;35.52;;;;;;;1.29;84.64;99022.86;2200450;81;21147;-69
2020/12/22 08:58:48;;;;;;;71.12;34.15;;;;;;;1.34;84.87;99021.50;2144046;83;21122;-66
2020/12/22 09:01:49;;;;;;;68.95;31.33;;;;;;;1.38;84.62;99017.53;2200449;81;21155;-68
2020/12/22 09:04:50;;;;;;;67.67;31.50;;;;;;;1.38;84.36;99017.98;2143989;83;21593;-66
2020/12/22 09:07:52;;;;;;;68.30;30.67;;;;;;;1.38;84.42;99016.23;2200932;81;21266;-65
2020/12/22 09:10:53;;;;;;;61.90;29.37;;;;;;;1.37;84.36;99005.92;2143996;83;22305;-65
2020/12/22 09:13:55;;;;;;;59.03;27.07;;;;;;;1.36;84.22;99002.92;2200399;81;21187;-66
2020/12/22 09:16:56;;;;;;;60.67;28.57;;;;;;;1.36;84.18;98997.30;2144025;83;21605;-65
2020/12/22 09:19:57;;;;;;;61.58;28.67;;;;;;;1.35;84.11;98995.63;2200457;81;21159;-66
2020/12/22 09:22:58;;;;;;;62.40;29.52;;;;;;;1.37;84.24;98986.55;2115236;83;21178;-66
2020/12/22 09:26:00;;;;;;;66.47;30.68;;;;;;;1.40;84.32;98984.34;2175658;81;21733;-66
2020/12/22 09:29:01;;;;;;;60.15;28.25;;;;;;;1.42;84.16;98973.52;2111564;84;21107;-65
2020/12/22 09:32:02;;;;;;;58.52;26.75;;;;;;;1.44;84.20;98971.31;2206134;81;21269;-65
2020/12/22 09:35:03;;;;;;;62.08;27.77;;;;;;;1.45;84.04;98973.02;2111639;84;21618;-65
2020/12/22 09:38:04;;;;;;;57.30;27.22;;;;;;;1.48;84.01;98962.61;2205896;80;21153;-65
2020/12/22 09:41:05;;;;;;;62.98;29.72;;;;;;;1.52;84.21;98942.27;2111556;84;21170;-65
2020/12/22 09:44:07;;;;;;;61.83;30.45;;;;;;;1.53;84.31;98931.48;2206212;80;21716;-68
2020/12/22 09:47:09;;;;;;;62.45;30.57;;;;;;;1.55;84.25;98932.28;2206531;81;21282;-74
2020/12/22 09:50:10;;;;;;;62.67;30.10;;;;;;;1.53;84.53;98937.94;2111708;84;21150;-69
2020/12/22 09:53:11;;;;;;;65.08;30.08;;;;;;;1.55;84.60;98930.98;2206428;80;21302;-67
2020/12/22 09:56:12;;;;;;;58.60;27.48;;;;;;;1.60;84.72;98917.98;2112210;84;21316;-74
2020/12/22 09:59:13;;;;;;;58.35;28.42;;;;;;;1.62;84.63;98923.50;2206059;81;21269;-75
2020/12/22 10:02:15;;;;;;;57.15;27.65;;;;;;;1.66;84.78;98921.25;2111990;84;21305;-75
2020/12/22 10:05:16;;;;;;;59.53;28.73;;;;;;;1.69;84.78;98911.29;2206510;80;21289;-74
2020/12/22 10:08:17;;;;;;;59.58;28.47;;;;;;;1.71;84.68;98910.37;2112181;84;21288;-74
2020/12/22 10:11:18;;;;;;;61.42;30.17;;;;;;;1.69;84.69;98900.48;2206056;80;21270;-69
2020/12/22 10:14:19;;;;;;;59.63;26.97;;;;;;;1.68;84.87;98898.81;2112100;84;21747;-69
2020/12/22 10:17:20;;;;;;;55.75;26.85;;;;;;;1.67;85.04;98894.52;2206508;80;21305;-67
2020/12/22 10:20:22;;;;;;;54.18;26.15;;;;;;;1.64;84.92;98888.55;2111843;84;21305;-68
2020/12/22 10:23:23;;;;;;;55.88;27.37;;;;;;;1.64;85.09;98891.14;2212912;80;21285;-68
2020/12/22 10:26:25;;;;;;;59.48;26.77;;;;;;;1.67;85.17;98888.05;2213385;80;21698;-69
2020/12/22 10:29:26;;;;;;;60.50;27.45;;;;;;;1.68;85.16;98882.00;2213323;80;21146;-67
2020/12/22 10:32:27;;;;;;;64.53;29.87;;;;;;;1.68;85.19;98884.59;2213253;80;21712;-66
2020/12/22 10:35:28;;;;;;;63.75;27.48;;;;;;;1.67;85.20;98880.75;2213131;80;21175;-71
2020/12/22 10:38:30;;;;;;;55.30;26.95;;;;;;;1.63;85.36;98867.48;2213634;80;21138;-66
2020/12/22 10:41:32;;;;;;;59.30;27.58;;;;;;;1.63;85.30;98868.78;2118912;83;21280;-65
2020/12/22 10:44:33;;;;;;;59.67;27.73;;;;;;;1.62;85.49;98860.61;2200148;81;21262;-67
2020/12/22 10:47:34;;;;;;;70.40;35.45;;;;;;;1.64;85.58;98863.98;2199899;81;21159;-67
2020/12/22 10:50:36;;;;;;;59.70;28.15;;;;;;;1.64;85.65;98858.39;2200133;81;21690;-69
2020/12/22 10:53:37;;;;;;;65.47;29.63;;;;;;;1.65;85.62;98851.47;2200094;81;21294;-66
2020/12/22 10:56:38;;;;;;;66.15;30.68;;;;;;;1.64;85.78;98847.18;2199903;81;21281;-68
2020/12/22 10:59:39;;;;;;;57.38;27.40;;;;;;;1.64;85.88;98844.17;2173809;81;21290;-69
2020/12/22 11:02:40;;;;;;;60.52;27.02;;;;;;;1.66;86.11;98835.92;2200076;81;21721;-67
2020/12/22 11:09:01;;;;;;;56.37;24.72;;;;;;;1.70;86.02;98834.96;2199879;81;21289;-74
2020/12/22 11:12:02;;;;;;;54.65;25.60;;;;;;;1.75;86.06;98835.30;2200025;81;21732;-67
2020/12/22 11:15:03;;;;;;;60.85;29.30;;;;;;;1.77;86.10;98833.08;2118621;83;21189;-65
2020/12/22 11:18:04;;;;;;;63.52;27.70;;;;;;;1.80;86.17;98833.45;2199862;81;21278;-65
2020/12/22 11:21:05;;;;;;;65.03;29.87;;;;;;;1.81;86.09;98828.67;2199927;81;21305;-66
2020/12/22 11:24:07;;;;;;;60.10;29.40;;;;;;;1.83;86.17;98828.20;2200110;81;21552;-66
2020/12/22 11:27:08;;;;;;;54.25;24.67;;;;;;;1.86;86.25;98816.02;2200366;81;21139;-66
2020/12/22 11:30:09;;;;;;;55.98;26.90;;;;;;;1.86;86.21;98816.02;2199994;81;21714;-65
2020/12/22 11:33:10;;;;;;;64.97;32.00;;;;;;;1.95;86.36;98812.34;2200303;81;21290;-70
2020/12/22 11:36:11;;;;;;;65.22;34.98;;;;;;;2.00;86.44;98812.25;2200356;81;21142;-66
2020/12/22 11:39:13;;;;;;;65.80;28.75;;;;;;;2.04;86.21;98805.66;2200112;81;21725;-66
2020/12/22 11:42:14;;;;;;;64.97;29.48;;;;;;;2.03;86.23;98806.53;2200222;81;21288;-68
2020/12/22 11:45:15;;;;;;;65.62;30.12;;;;;;;2.01;86.24;98807.03;2200118;81;21285;-71
2020/12/22 11:48:16;;;;;;;61.85;27.73;;;;;;;2.00;86.30;98809.66;2200106;81;21725;-68
2020/12/22 11:51:17;;;;;;;56.00;25.92;;;;;;;1.99;86.30;98794.56;2200323;81;21151;-68
2020/12/22 11:54:19;;;;;;;58.65;25.50;;;;;;;1.99;86.34;98801.03;2199779;81;21254;-65
2020/12/22 11:57:20;;;;;;;56.33;25.02;;;;;;;2.00;86.56;98789.80;2200076;81;21709;-69
2020/12/22 12:00:21;;;;;;;59.42;28.20;;;;;;;2.02;86.58;98789.30;2200328;81;21100;-67
2020/12/22 12:03:22;;;;;;;57.20;26.82;;;;;;;2.04;86.51;98778.91;2200074;81;21127;-65
2020/12/22 12:06:23;;;;;;;68.28;30.35;;;;;;;2.07;86.60;98782.73;2118706;83;21598;-75
2020/12/22 12:09:25;;;;;;;59.38;26.85;;;;;;;2.07;86.65;98768.05;2200103;81;21179;-66
2020/12/22 12:12:26;;;;;;;57.88;26.95;;;;;;;2.03;86.64;98766.43;2118928;83;21146;-71
2020/12/22 12:15:27;;;;;;;62.85;29.35;;;;;;;2.06;86.69;98768.93;2200034;81;21273;-75
2020/12/22 12:18:28;;;;;;;64.12;34.85;;;;;;;2.12;86.87;98759.31;2100068;84;21720;-76
2020/12/22 12:21:30;;;;;;;60.83;27.05;;;;;;;2.18;86.94;98757.38;2199639;81;21309;-66
2020/12/22 12:24:31;;;;;;;57.20;27.17;;;;;;;2.27;86.95;98752.84;2091465;84;21736;-68
2020/12/22 12:27:32;;;;;;;68.37;30.37;;;;;;;2.34;86.86;98748.77;2205949;80;21141;-67
2020/12/22 12:30:33;;;;;;;62.53;29.52;;;;;;;2.40;86.83;98739.52;2111638;84;21138;-66
2020/12/22 12:33:34;;;;;;;61.40;27.75;;;;;;;2.43;86.83;98729.53;2206137;81;21285;-66
2020/12/22 12:36:35;;;;;;;55.98;28.15;;;;;;;2.48;86.77;98726.80;2111922;84;21331;-70
2020/12/22 12:39:40;;;;;;;52.80;26.23;;;;;;;2.51;86.60;98727.54;2206365;80;21123;-69
2020/12/22 12:42:42;;;;;;;61.90;29.30;;;;;;;2.55;86.64;98720.54;2111938;84;21285;-68
2020/12/22 12:45:43;;;;;;;53.83;27.62;;;;;;;2.62;86.77;98719.92;2206390;80;21293;-71
2020/12/22 12:48:44;;;;;;;56.88;27.30;;;;;;;2.64;86.61;98726.72;2111606;84;21187;-65
2020/12/22 12:51:45;;;;;;;59.63;28.90;;;;;;;2.61;86.59;98711.28;2206001;80;21162;-68
2020/12/22 12:54:48;;;;;;;57.03;26.77;;;;;;;2.62;86.89;98706.97;2091443;84;21162;-72
2020/12/22 12:57:49;;;;;;;53.50;24.95;;;;;;;2.62;86.69;98705.22;2205892;80;21595;-69
2020/12/22 13:00:51;;;;;;;56.23;25.75;;;;;;;2.63;86.74;98710.81;2206130;81;21154;-73
2020/12/22 13:03:52;;;;;;;61.28;28.47;;;;;;;2.66;86.71;98711.13;2111823;84;21307;-68
2020/12/22 13:06:53;;;;;;;67.92;30.40;;;;;;;2.62;86.79;98703.92;2175607;81;21296;-66
2020/12/22 13:09:54;;;;;;;62.05;29.65;;;;;;;2.61;86.73;98695.75;2111573;84;21178;-71
2020/12/22 13:12:55;;;;;;;60.55;31.10;;;;;;;2.63;86.89;98692.67;2205823;80;21100;-69
2020/12/22 13:15:56;;;;;;;56.70;28.50;;;;;;;2.65;87.06;98688.28;2111701;84;21603;-74
2020/12/22 13:18:58;;;;;;;62.23;28.57;;;;;;;2.65;86.96;98681.81;2206346;81;21293;-65
2020/12/22 13:21:59;;;;;;;58.98;26.90;;;;;;;2.65;87.22;98674.50;2111710;84;21728;-67
2020/12/22 13:25:00;;;;;;;61.50;27.85;;;;;;;2.66;87.21;98674.87;2205898;80;21143;-67
2020/12/22 13:28:02;;;;;;;56.63;26.40;;;;;;;2.69;87.23;98666.58;2111747;84;21123;-68
2020/12/22 13:31:03;;;;;;;60.75;29.12;;;;;;;2.73;87.27;98672.06;2206389;80;21250;-69
2020/12/22 13:34:04;;;;;;;59.30;30.25;;;;;;;2.76;87.32;98663.36;2111621;84;21633;-68
2020/12/22 13:37:07;;;;;;;65.83;30.08;;;;;;;2.81;87.36;98669.68;2206114;80;21147;-72
2020/12/22 13:40:08;;;;;;;63.15;30.00;;;;;;;2.80;87.36;98661.04;2111803;84;21332;-73
2020/12/22 13:43:10;;;;;;;62.65;30.35;;;;;;;2.80;87.54;98660.20;2205982;80;21282;-66
2020/12/22 13:46:11;;;;;;;64.22;29.85;;;;;;;2.81;87.49;98656.73;2111779;84;21726;-66
2020/12/22 13:49:12;;;;;;;61.20;29.02;;;;;;;2.85;87.50;98661.75;2206338;80;21286;-65
2020/12/22 13:52:13;;;;;;;67.53;32.17;;;;;;;2.89;87.63;98665.11;2111520;84;21145;-66
2020/12/22 13:55:14;;;;;;;73.42;34.33;;;;;;;2.91;87.68;98665.44;2205927;80;21647;-66
2020/12/22 13:58:16;;;;;;;103.87;54.23;;;;;;;2.92;87.60;98659.83;2111548;84;21605;-66